sensor_id;sensor_type;location;lat;lon;timestamp;temperature;humidity
14555;DHT22;7364;50.870;4.722;2023-01-10T00:00:32;5.70;99.90
14555;DHT22;7364;50.870;4.722;2023-01-10T00:03:02;5.70;99.90
14555;DHT22;7364;50.870;4.722;2023-01-10T00:05:29;5.70;99.90
14555;DHT22;7364;50.870;4.722;2023-01-10T00:07:57;5.70;99.90
14555;DHT22;7364;50.870;4.722;2023-01-10T00:10:24;5.80;99.90
14555;DHT22;7364;50.870;4.722;2023-01-10T00:12:53;5.80;99.90
14555;DHT22;7364;50.870;4.722;2023-01-10T00:15:38;5.80;99.90
14555;DHT22;7364;50.870;4.722;2023-01-10T00:18:05;5.90;99.90
14555;DHT22;7364;50.870;4.722;2023-01-10T00:20:33;6.00;99.90
14555;DHT22;7364;50.870;4.722;2023-01-10T00:23:00;6.00;99.90
14555;DHT22;7364;50.870;4.722;2023-01-10T00:25:28;6.00;99.90
14555;DHT22;7364;50.870;4.722;2023-01-10T00:27:57;5.90;99.90
14555;DHT22;7364;50.870;4.722;2023-01-10T00:30:29;5.80;99.90
14555;DHT22;7364;50.870;4.722;2023-01-10T00:32:59;5.80;99.90
14555;DHT22;7364;50.870;4.722;2023-01-10T00:35:29;5.80;99.90
14555;DHT22;7364;50.870;4.722;2023-01-10T00:37:57;5.90;99.90
14555;DHT22;7364;50.870;4.722;2023-01-10T00:40:26;5.80;99.90
14555;DHT22;7364;50.870;4.722;2023-01-10T00:42:55;5.80;99.90
14555;DHT22;7364;50.870;4.722;2023-01-10T00:45:40;5.80;99.90
14555;DHT22;7364;50.870;4.722;2023-01-10T00:48:07;5.80;99.90
14555;DHT22;7364;50.870;4.722;2023-01-10T00:50:35;5.80;99.90
14555;DHT22;7364;50.870;4.722;2023-01-10T00:53:02;5.70;99.90
14555;DHT22;7364;50.870;4.722;2023-01-10T00:55:29;5.70;99.90
14555;DHT22;7364;50.870;4.722;2023-01-10T00:57:58;5.70;99.90
14555;DHT22;7364;50.870;4.722;2023-01-10T01:00:26;5.70;99.90
14555;DHT22;7364;50.870;4.722;2023-01-10T01:02:53;5.70;99.90
14555;DHT22;7364;50.870;4.722;2023-01-10T01:05:21;5.70;99.90
14555;DHT22;7364;50.870;4.722;2023-01-10T01:07:48;5.70;99.90
14555;DHT22;7364;50.870;4.722;2023-01-10T01:10:16;5.70;99.90
14555;DHT22;7364;50.870;4.722;2023-01-10T01:12:53;5.70;99.90
14555;DHT22;7364;50.870;4.722;2023-01-10T01:15:23;5.80;99.90
14555;DHT22;7364;50.870;4.722;2023-01-10T01:17:50;5.80;99.90
14555;DHT22;7364;50.870;4.722;2023-01-10T01:20:17;5.90;99.90
14555;DHT22;7364;50.870;4.722;2023-01-10T01:22:46;5.90;99.90
14555;DHT22;7364;50.870;4.722;2023-01-10T01:25:13;5.90;99.90
14555;DHT22;7364;50.870;4.722;2023-01-10T01:27:44;6.00;99.90
14555;DHT22;7364;50.870;4.722;2023-01-10T01:30:11;6.00;99.90
14555;DHT22;7364;50.870;4.722;2023-01-10T01:32:40;6.00;99.90
14555;DHT22;7364;50.870;4.722;2023-01-10T01:35:09;6.00;99.90
14555;DHT22;7364;50.870;4.722;2023-01-10T01:37:38;6.00;99.90
14555;DHT22;7364;50.870;4.722;2023-01-10T01:40:06;6.10;99.90
14555;DHT22;7364;50.870;4.722;2023-01-10T01:42:34;6.00;99.90
14555;DHT22;7364;50.870;4.722;2023-01-10T01:48:17;6.20;99.90
14555;DHT22;7364;50.870;4.722;2023-01-10T01:50:49;6.20;99.90
14555;DHT22;7364;50.870;4.722;2023-01-10T01:53:23;6.40;99.90
14555;DHT22;7364;50.870;4.722;2023-01-10T01:55:53;6.30;99.90
14555;DHT22;7364;50.870;4.722;2023-01-10T01:58:27;6.50;99.90
14555;DHT22;7364;50.870;4.722;2023-01-10T02:00:56;6.50;99.90
14555;DHT22;7364;50.870;4.722;2023-01-10T02:03:26;6.20;99.90
14555;DHT22;7364;50.870;4.722;2023-01-10T02:05:53;6.10;99.90
14555;DHT22;7364;50.870;4.722;2023-01-10T02:08:21;6.00;99.90
14555;DHT22;7364;50.870;4.722;2023-01-10T02:10:53;6.00;99.90
14555;DHT22;7364;50.870;4.722;2023-01-10T02:13:25;6.00;99.90
14555;DHT22;7364;50.870;4.722;2023-01-10T02:15:53;6.00;99.90
14555;DHT22;7364;50.870;4.722;2023-01-10T02:18:21;5.90;99.90
14555;DHT22;7364;50.870;4.722;2023-01-10T02:21:13;5.80;99.90
14555;DHT22;7364;50.870;4.722;2023-01-10T02:26:59;5.90;99.90
14555;DHT22;7364;50.870;4.722;2023-01-10T02:32:40;6.00;99.90
14555;DHT22;7364;50.870;4.722;2023-01-10T02:35:17;6.00;99.90
14555;DHT22;7364;50.870;4.722;2023-01-10T02:37:52;6.30;99.90
14555;DHT22;7364;50.870;4.722;2023-01-10T02:40:29;6.50;99.90
14555;DHT22;7364;50.870;4.722;2023-01-10T02:43:05;6.20;99.90
14555;DHT22;7364;50.870;4.722;2023-01-10T02:45:35;6.00;99.90
14555;DHT22;7364;50.870;4.722;2023-01-10T02:48:06;5.90;99.90
14555;DHT22;7364;50.870;4.722;2023-01-10T02:50:48;5.90;99.90
14555;DHT22;7364;50.870;4.722;2023-01-10T02:53:21;5.80;99.90
14555;DHT22;7364;50.870;4.722;2023-01-10T02:56:08;5.80;99.90
14555;DHT22;7364;50.870;4.722;2023-01-10T02:59:04;5.70;99.90
14555;DHT22;7364;50.870;4.722;2023-01-10T03:01:37;5.70;99.90
14555;DHT22;7364;50.870;4.722;2023-01-10T03:04:17;5.70;99.90
14555;DHT22;7364;50.870;4.722;2023-01-10T03:06:53;5.60;99.90
14555;DHT22;7364;50.870;4.722;2023-01-10T03:09:30;5.70;99.90
14555;DHT22;7364;50.870;4.722;2023-01-10T03:12:10;5.60;99.90
14555;DHT22;7364;50.870;4.722;2023-01-10T03:14:40;5.60;99.90
14555;DHT22;7364;50.870;4.722;2023-01-10T03:17:10;5.60;99.90
14555;DHT22;7364;50.870;4.722;2023-01-10T03:19:43;5.50;99.90
14555;DHT22;7364;50.870;4.722;2023-01-10T03:22:14;5.50;99.90
14555;DHT22;7364;50.870;4.722;2023-01-10T03:24:45;5.60;99.90
14555;DHT22;7364;50.870;4.722;2023-01-10T03:27:19;5.60;99.90
14555;DHT22;7364;50.870;4.722;2023-01-10T03:29:52;5.60;99.90
14555;DHT22;7364;50.870;4.722;2023-01-10T03:32:25;5.70;99.90
14555;DHT22;7364;50.870;4.722;2023-01-10T03:34:56;5.70;99.90
14555;DHT22;7364;50.870;4.722;2023-01-10T03:37:30;5.80;99.90
14555;DHT22;7364;50.870;4.722;2023-01-10T03:40:07;5.80;99.90
14555;DHT22;7364;50.870;4.722;2023-01-10T03:42:42;5.80;99.90
14555;DHT22;7364;50.870;4.722;2023-01-10T03:45:31;5.90;99.90
14555;DHT22;7364;50.870;4.722;2023-01-10T03:48:15;6.00;99.90
14555;DHT22;7364;50.870;4.722;2023-01-10T03:51:14;6.20;99.90
14555;DHT22;7364;50.870;4.722;2023-01-10T03:53:47;6.50;99.90
14555;DHT22;7364;50.870;4.722;2023-01-10T03:56:15;6.60;99.90
14555;DHT22;7364;50.870;4.722;2023-01-10T03:58:44;6.60;99.90
14555;DHT22;7364;50.870;4.722;2023-01-10T04:01:13;6.60;99.90
14555;DHT22;7364;50.870;4.722;2023-01-10T04:03:43;6.50;99.90
14555;DHT22;7364;50.870;4.722;2023-01-10T04:06:28;6.30;99.90
14555;DHT22;7364;50.870;4.722;2023-01-10T04:09:10;6.00;99.90
14555;DHT22;7364;50.870;4.722;2023-01-10T04:11:39;5.90;99.90
14555;DHT22;7364;50.870;4.722;2023-01-10T04:14:06;5.90;99.90
14555;DHT22;7364;50.870;4.722;2023-01-10T04:16:33;6.00;99.90
14555;DHT22;7364;50.870;4.722;2023-01-10T04:19:00;6.10;99.90
14555;DHT22;7364;50.870;4.722;2023-01-10T04:21:29;6.00;99.90
14555;DHT22;7364;50.870;4.722;2023-01-10T04:23:56;5.90;99.90
14555;DHT22;7364;50.870;4.722;2023-01-10T04:26:23;5.90;99.90
14555;DHT22;7364;50.870;4.722;2023-01-10T04:28:51;5.70;99.90
14555;DHT22;7364;50.870;4.722;2023-01-10T04:31:18;5.60;99.90
14555;DHT22;7364;50.870;4.722;2023-01-10T04:33:47;5.50;99.90
14555;DHT22;7364;50.870;4.722;2023-01-10T04:36:14;5.30;99.90
14555;DHT22;7364;50.870;4.722;2023-01-10T04:38:43;5.40;99.90
14555;DHT22;7364;50.870;4.722;2023-01-10T04:41:11;5.30;99.90
14555;DHT22;7364;50.870;4.722;2023-01-10T04:43:38;5.20;99.90
14555;DHT22;7364;50.870;4.722;2023-01-10T04:46:05;5.20;99.90
14555;DHT22;7364;50.870;4.722;2023-01-10T04:48:32;5.20;99.90
14555;DHT22;7364;50.870;4.722;2023-01-10T04:51:01;5.20;99.90
14555;DHT22;7364;50.870;4.722;2023-01-10T04:53:28;5.20;99.90
14555;DHT22;7364;50.870;4.722;2023-01-10T04:56:02;5.20;99.90
14555;DHT22;7364;50.870;4.722;2023-01-10T04:58:32;5.30;99.90
14555;DHT22;7364;50.870;4.722;2023-01-10T05:01:05;5.20;99.90
14555;DHT22;7364;50.870;4.722;2023-01-10T05:03:32;5.20;99.90
14555;DHT22;7364;50.870;4.722;2023-01-10T05:06:00;5.30;99.90
14555;DHT22;7364;50.870;4.722;2023-01-10T05:08:27;5.30;99.90
14555;DHT22;7364;50.870;4.722;2023-01-10T05:10:54;5.30;99.90
14555;DHT22;7364;50.870;4.722;2023-01-10T05:13:23;5.20;99.90
14555;DHT22;7364;50.870;4.722;2023-01-10T05:15:53;5.10;99.90
14555;DHT22;7364;50.870;4.722;2023-01-10T05:18:20;5.10;99.90
14555;DHT22;7364;50.870;4.722;2023-01-10T05:20:48;5.10;99.90
14555;DHT22;7364;50.870;4.722;2023-01-10T05:23:15;5.10;99.90
14555;DHT22;7364;50.870;4.722;2023-01-10T05:25:42;5.10;99.90
14555;DHT22;7364;50.870;4.722;2023-01-10T05:28:10;5.10;99.90
14555;DHT22;7364;50.870;4.722;2023-01-10T05:30:39;5.00;99.90
14555;DHT22;7364;50.870;4.722;2023-01-10T05:33:06;5.00;99.90
14555;DHT22;7364;50.870;4.722;2023-01-10T05:35:33;5.00;99.90
14555;DHT22;7364;50.870;4.722;2023-01-10T05:38:00;5.00;99.90
14555;DHT22;7364;50.870;4.722;2023-01-10T05:40:28;5.00;99.90
14555;DHT22;7364;50.870;4.722;2023-01-10T05:42:55;5.10;99.90
14555;DHT22;7364;50.870;4.722;2023-01-10T05:45:22;5.20;99.90
14555;DHT22;7364;50.870;4.722;2023-01-10T05:47:54;5.40;99.90
14555;DHT22;7364;50.870;4.722;2023-01-10T05:50:21;5.40;99.90
14555;DHT22;7364;50.870;4.722;2023-01-10T05:52:48;5.40;99.90
14555;DHT22;7364;50.870;4.722;2023-01-10T05:55:16;5.40;99.90
14555;DHT22;7364;50.870;4.722;2023-01-10T05:57:43;5.30;99.90
14555;DHT22;7364;50.870;4.722;2023-01-10T06:00:12;5.20;99.90
14555;DHT22;7364;50.870;4.722;2023-01-10T06:02:39;5.20;99.90
14555;DHT22;7364;50.870;4.722;2023-01-10T06:05:08;5.30;99.90
14555;DHT22;7364;50.870;4.722;2023-01-10T06:07:36;5.30;99.90
14555;DHT22;7364;50.870;4.722;2023-01-10T06:10:04;5.20;99.90
14555;DHT22;7364;50.870;4.722;2023-01-10T06:12:31;5.30;99.90
14555;DHT22;7364;50.870;4.722;2023-01-10T06:14:58;5.30;99.90
14555;DHT22;7364;50.870;4.722;2023-01-10T06:17:26;5.20;99.90
14555;DHT22;7364;50.870;4.722;2023-01-10T06:19:54;5.30;99.90
14555;DHT22;7364;50.870;4.722;2023-01-10T06:22:22;5.20;99.90
14555;DHT22;7364;50.870;4.722;2023-01-10T06:24:51;5.20;99.90
14555;DHT22;7364;50.870;4.722;2023-01-10T06:27:18;5.20;99.90
14555;DHT22;7364;50.870;4.722;2023-01-10T06:29:45;5.20;99.90
14555;DHT22;7364;50.870;4.722;2023-01-10T06:32:14;5.30;99.90
14555;DHT22;7364;50.870;4.722;2023-01-10T06:34:46;5.20;99.90
14555;DHT22;7364;50.870;4.722;2023-01-10T06:37:14;5.10;99.90
14555;DHT22;7364;50.870;4.722;2023-01-10T06:39:43;5.00;99.90
14555;DHT22;7364;50.870;4.722;2023-01-10T06:42:12;5.00;99.90
14555;DHT22;7364;50.870;4.722;2023-01-10T06:44:41;5.10;99.90
14555;DHT22;7364;50.870;4.722;2023-01-10T06:47:08;5.00;99.90
14555;DHT22;7364;50.870;4.722;2023-01-10T06:49:36;4.90;99.90
14555;DHT22;7364;50.870;4.722;2023-01-10T06:52:05;4.80;99.90
14555;DHT22;7364;50.870;4.722;2023-01-10T06:54:32;4.70;99.90
14555;DHT22;7364;50.870;4.722;2023-01-10T06:57:01;4.70;99.90
14555;DHT22;7364;50.870;4.722;2023-01-10T06:59:28;4.70;99.90
14555;DHT22;7364;50.870;4.722;2023-01-10T07:01:55;4.70;99.90
14555;DHT22;7364;50.870;4.722;2023-01-10T07:04:22;4.70;99.90
14555;DHT22;7364;50.870;4.722;2023-01-10T07:06:51;4.70;99.90
14555;DHT22;7364;50.870;4.722;2023-01-10T07:09:18;4.70;99.90
14555;DHT22;7364;50.870;4.722;2023-01-10T07:11:45;4.70;99.90
14555;DHT22;7364;50.870;4.722;2023-01-10T07:14:14;4.80;99.90
14555;DHT22;7364;50.870;4.722;2023-01-10T07:16:41;4.70;99.90
14555;DHT22;7364;50.870;4.722;2023-01-10T07:19:09;4.80;99.90
14555;DHT22;7364;50.870;4.722;2023-01-10T07:21:38;4.80;99.90
14555;DHT22;7364;50.870;4.722;2023-01-10T07:24:07;4.70;99.90
14555;DHT22;7364;50.870;4.722;2023-01-10T07:26:34;4.60;99.90
14555;DHT22;7364;50.870;4.722;2023-01-10T07:29:02;4.70;99.90
14555;DHT22;7364;50.870;4.722;2023-01-10T07:31:30;4.70;99.90
14555;DHT22;7364;50.870;4.722;2023-01-10T07:33:57;4.70;99.90
14555;DHT22;7364;50.870;4.722;2023-01-10T07:36:25;4.70;99.90
14555;DHT22;7364;50.870;4.722;2023-01-10T07:38:52;4.80;99.90
14555;DHT22;7364;50.870;4.722;2023-01-10T07:41:19;4.90;99.90
14555;DHT22;7364;50.870;4.722;2023-01-10T07:43:46;5.00;99.90
14555;DHT22;7364;50.870;4.722;2023-01-10T07:46:14;5.20;99.90
14555;DHT22;7364;50.870;4.722;2023-01-10T07:48:43;5.20;99.90
14555;DHT22;7364;50.870;4.722;2023-01-10T07:51:11;5.40;99.90
14555;DHT22;7364;50.870;4.722;2023-01-10T07:53:39;5.30;99.90
14555;DHT22;7364;50.870;4.722;2023-01-10T07:56:06;5.20;99.90
14555;DHT22;7364;50.870;4.722;2023-01-10T07:58:34;5.20;99.90
14555;DHT22;7364;50.870;4.722;2023-01-10T08:01:03;5.20;99.90
14555;DHT22;7364;50.870;4.722;2023-01-10T08:03:31;5.00;99.90
14555;DHT22;7364;50.870;4.722;2023-01-10T08:06:01;5.00;99.90
14555;DHT22;7364;50.870;4.722;2023-01-10T08:08:29;5.00;99.90
14555;DHT22;7364;50.870;4.722;2023-01-10T08:10:56;4.90;99.90
14555;DHT22;7364;50.870;4.722;2023-01-10T08:13:27;4.90;99.90
14555;DHT22;7364;50.870;4.722;2023-01-10T08:15:55;5.10;99.90
14555;DHT22;7364;50.870;4.722;2023-01-10T08:18:23;5.10;99.90
14555;DHT22;7364;50.870;4.722;2023-01-10T08:20:52;5.10;99.90
14555;DHT22;7364;50.870;4.722;2023-01-10T08:23:21;5.10;99.90
14555;DHT22;7364;50.870;4.722;2023-01-10T08:25:49;5.30;99.90
14555;DHT22;7364;50.870;4.722;2023-01-10T08:28:17;5.40;99.90
14555;DHT22;7364;50.870;4.722;2023-01-10T08:30:45;5.50;99.90
14555;DHT22;7364;50.870;4.722;2023-01-10T08:33:13;5.60;99.90
14555;DHT22;7364;50.870;4.722;2023-01-10T08:35:42;5.60;99.90
14555;DHT22;7364;50.870;4.722;2023-01-10T08:38:11;5.70;99.90
14555;DHT22;7364;50.870;4.722;2023-01-10T08:40:40;5.70;99.90
14555;DHT22;7364;50.870;4.722;2023-01-10T08:43:10;5.60;99.90
14555;DHT22;7364;50.870;4.722;2023-01-10T08:45:38;5.60;99.90
14555;DHT22;7364;50.870;4.722;2023-01-10T08:48:06;5.60;99.90
14555;DHT22;7364;50.870;4.722;2023-01-10T08:50:35;5.60;99.90
14555;DHT22;7364;50.870;4.722;2023-01-10T08:53:02;5.80;99.90
14555;DHT22;7364;50.870;4.722;2023-01-10T08:55:29;5.80;99.90
14555;DHT22;7364;50.870;4.722;2023-01-10T08:58:02;5.80;99.90
14555;DHT22;7364;50.870;4.722;2023-01-10T09:00:29;5.80;99.90
14555;DHT22;7364;50.870;4.722;2023-01-10T09:02:57;5.80;99.90
14555;DHT22;7364;50.870;4.722;2023-01-10T09:05:24;5.80;99.90
14555;DHT22;7364;50.870;4.722;2023-01-10T09:07:52;5.90;99.90
14555;DHT22;7364;50.870;4.722;2023-01-10T09:10:19;5.90;99.90
14555;DHT22;7364;50.870;4.722;2023-01-10T09:12:47;5.90;99.90
14555;DHT22;7364;50.870;4.722;2023-01-10T09:15:29;6.00;99.90
14555;DHT22;7364;50.870;4.722;2023-01-10T09:17:58;6.00;99.90
14555;DHT22;7364;50.870;4.722;2023-01-10T09:20:27;6.10;99.90
14555;DHT22;7364;50.870;4.722;2023-01-10T09:22:55;6.10;99.90
14555;DHT22;7364;50.870;4.722;2023-01-10T09:25:23;6.00;99.90
14555;DHT22;7364;50.870;4.722;2023-01-10T09:27:56;6.10;99.90
14555;DHT22;7364;50.870;4.722;2023-01-10T09:30:24;6.20;99.90
14555;DHT22;7364;50.870;4.722;2023-01-10T09:32:54;6.20;99.90
14555;DHT22;7364;50.870;4.722;2023-01-10T09:35:24;6.40;99.90
14555;DHT22;7364;50.870;4.722;2023-01-10T09:37:53;6.40;99.90
14555;DHT22;7364;50.870;4.722;2023-01-10T09:40:41;6.30;99.90
14555;DHT22;7364;50.870;4.722;2023-01-10T09:43:15;6.50;99.90
14555;DHT22;7364;50.870;4.722;2023-01-10T09:45:50;6.60;99.90
14555;DHT22;7364;50.870;4.722;2023-01-10T09:48:32;6.80;99.90
14555;DHT22;7364;50.870;4.722;2023-01-10T09:51:12;6.90;99.90
14555;DHT22;7364;50.870;4.722;2023-01-10T09:53:44;6.80;99.90
14555;DHT22;7364;50.870;4.722;2023-01-10T09:56:13;6.70;99.90
14555;DHT22;7364;50.870;4.722;2023-01-10T09:58:42;6.70;99.90
14555;DHT22;7364;50.870;4.722;2023-01-10T10:01:13;6.90;99.90
14555;DHT22;7364;50.870;4.722;2023-01-10T10:03:50;7.00;99.90
14555;DHT22;7364;50.870;4.722;2023-01-10T10:06:21;6.90;99.90
14555;DHT22;7364;50.870;4.722;2023-01-10T10:08:50;7.00;99.90
14555;DHT22;7364;50.870;4.722;2023-01-10T10:11:35;6.90;99.90
14555;DHT22;7364;50.870;4.722;2023-01-10T10:14:14;7.10;99.90
14555;DHT22;7364;50.870;4.722;2023-01-10T10:16:56;7.00;99.90
14555;DHT22;7364;50.870;4.722;2023-01-10T10:19:36;6.90;99.90
14555;DHT22;7364;50.870;4.722;2023-01-10T10:22:14;6.90;99.90
14555;DHT22;7364;50.870;4.722;2023-01-10T10:24:54;7.00;99.90
14555;DHT22;7364;50.870;4.722;2023-01-10T10:27:33;7.10;99.90
14555;DHT22;7364;50.870;4.722;2023-01-10T10:30:21;7.10;99.90
14555;DHT22;7364;50.870;4.722;2023-01-10T10:33:16;7.00;99.90
14555;DHT22;7364;50.870;4.722;2023-01-10T10:35:54;7.10;99.90
14555;DHT22;7364;50.870;4.722;2023-01-10T10:38:26;7.10;99.90
14555;DHT22;7364;50.870;4.722;2023-01-10T10:40:58;7.10;99.90
14555;DHT22;7364;50.870;4.722;2023-01-10T10:43:33;7.10;99.90
14555;DHT22;7364;50.870;4.722;2023-01-10T10:46:04;7.10;99.90
14555;DHT22;7364;50.870;4.722;2023-01-10T10:48:37;7.10;99.90
14555;DHT22;7364;50.870;4.722;2023-01-10T10:51:09;7.20;99.90
14555;DHT22;7364;50.870;4.722;2023-01-10T10:53:38;7.30;99.90
14555;DHT22;7364;50.870;4.722;2023-01-10T10:56:10;7.30;99.90
14555;DHT22;7364;50.870;4.722;2023-01-10T10:58:42;7.30;99.90
14555;DHT22;7364;50.870;4.722;2023-01-10T11:01:11;7.30;99.90
14555;DHT22;7364;50.870;4.722;2023-01-10T11:03:43;7.40;99.90
14555;DHT22;7364;50.870;4.722;2023-01-10T11:06:15;7.40;99.90
14555;DHT22;7364;50.870;4.722;2023-01-10T11:08:47;7.50;99.90
14555;DHT22;7364;50.870;4.722;2023-01-10T11:11:20;7.50;99.90
14555;DHT22;7364;50.870;4.722;2023-01-10T11:13:53;7.60;99.90
14555;DHT22;7364;50.870;4.722;2023-01-10T11:16:26;7.50;99.90
14555;DHT22;7364;50.870;4.722;2023-01-10T11:19:14;7.50;99.90
14555;DHT22;7364;50.870;4.722;2023-01-10T11:21:47;7.50;99.90
14555;DHT22;7364;50.870;4.722;2023-01-10T11:24:22;7.40;99.90
14555;DHT22;7364;50.870;4.722;2023-01-10T11:26:50;7.40;99.90
14555;DHT22;7364;50.870;4.722;2023-01-10T11:29:23;7.40;99.90
14555;DHT22;7364;50.870;4.722;2023-01-10T11:31:53;7.50;99.90
14555;DHT22;7364;50.870;4.722;2023-01-10T11:34:25;7.50;99.90
14555;DHT22;7364;50.870;4.722;2023-01-10T11:36:58;7.50;99.90
14555;DHT22;7364;50.870;4.722;2023-01-10T11:39:27;7.50;99.90
14555;DHT22;7364;50.870;4.722;2023-01-10T11:42:19;7.60;99.90
14555;DHT22;7364;50.870;4.722;2023-01-10T11:44:54;7.50;99.90
14555;DHT22;7364;50.870;4.722;2023-01-10T11:47:21;7.50;99.90
14555;DHT22;7364;50.870;4.722;2023-01-10T11:49:49;7.60;99.90
14555;DHT22;7364;50.870;4.722;2023-01-10T11:52:23;7.60;99.90
14555;DHT22;7364;50.870;4.722;2023-01-10T11:54:53;7.60;99.90
14555;DHT22;7364;50.870;4.722;2023-01-10T11:57:24;7.70;99.90
14555;DHT22;7364;50.870;4.722;2023-01-10T11:59:56;7.60;99.90
14555;DHT22;7364;50.870;4.722;2023-01-10T12:02:26;7.70;99.90
14555;DHT22;7364;50.870;4.722;2023-01-10T12:04:57;7.70;99.90
14555;DHT22;7364;50.870;4.722;2023-01-10T12:07:26;7.70;99.90
14555;DHT22;7364;50.870;4.722;2023-01-10T12:09:55;7.70;99.90
14555;DHT22;7364;50.870;4.722;2023-01-10T12:12:24;7.70;99.90
14555;DHT22;7364;50.870;4.722;2023-01-10T12:14:54;7.70;99.90
14555;DHT22;7364;50.870;4.722;2023-01-10T12:17:24;7.70;99.90
14555;DHT22;7364;50.870;4.722;2023-01-10T12:19:53;7.70;99.90
14555;DHT22;7364;50.870;4.722;2023-01-10T12:22:29;7.80;99.90
14555;DHT22;7364;50.870;4.722;2023-01-10T12:25:02;7.90;99.90
14555;DHT22;7364;50.870;4.722;2023-01-10T12:27:32;7.90;99.90
14555;DHT22;7364;50.870;4.722;2023-01-10T12:30:04;8.00;99.90
14555;DHT22;7364;50.870;4.722;2023-01-10T12:32:37;8.00;99.90
14555;DHT22;7364;50.870;4.722;2023-01-10T12:35:10;8.00;99.90
14555;DHT22;7364;50.870;4.722;2023-01-10T12:37:45;7.90;99.90
14555;DHT22;7364;50.870;4.722;2023-01-10T12:40:18;7.90;99.90
14555;DHT22;7364;50.870;4.722;2023-01-10T12:42:53;8.00;99.90
14555;DHT22;7364;50.870;4.722;2023-01-10T12:45:42;8.00;99.90
14555;DHT22;7364;50.870;4.722;2023-01-10T12:48:19;8.00;99.90
14555;DHT22;7364;50.870;4.722;2023-01-10T12:50:52;7.90;99.90
14555;DHT22;7364;50.870;4.722;2023-01-10T12:53:35;7.90;99.90
14555;DHT22;7364;50.870;4.722;2023-01-10T12:56:06;7.90;99.90
14555;DHT22;7364;50.870;4.722;2023-01-10T12:58:41;8.00;99.90
14555;DHT22;7364;50.870;4.722;2023-01-10T13:01:13;8.00;99.90
14555;DHT22;7364;50.870;4.722;2023-01-10T13:03:42;8.00;99.90
14555;DHT22;7364;50.870;4.722;2023-01-10T13:06:19;7.90;99.90
14555;DHT22;7364;50.870;4.722;2023-01-10T13:08:49;7.80;99.90
14555;DHT22;7364;50.870;4.722;2023-01-10T13:11:18;7.80;99.90
14555;DHT22;7364;50.870;4.722;2023-01-10T13:13:52;7.80;99.90
14555;DHT22;7364;50.870;4.722;2023-01-10T13:16:32;7.70;99.90
14555;DHT22;7364;50.870;4.722;2023-01-10T13:19:04;7.70;99.90
14555;DHT22;7364;50.870;4.722;2023-01-10T13:21:33;7.70;99.90
14555;DHT22;7364;50.870;4.722;2023-01-10T13:24:03;7.70;99.90
14555;DHT22;7364;50.870;4.722;2023-01-10T13:26:51;7.60;99.90
14555;DHT22;7364;50.870;4.722;2023-01-10T13:29:20;7.50;99.90
14555;DHT22;7364;50.870;4.722;2023-01-10T13:31:48;7.50;99.90
14555;DHT22;7364;50.870;4.722;2023-01-10T13:34:24;7.50;99.90
14555;DHT22;7364;50.870;4.722;2023-01-10T13:36:55;7.50;99.90
14555;DHT22;7364;50.870;4.722;2023-01-10T13:39:28;7.40;99.90
14555;DHT22;7364;50.870;4.722;2023-01-10T13:45:28;7.30;99.90
14555;DHT22;7364;50.870;4.722;2023-01-10T13:48:02;7.30;99.90
14555;DHT22;7364;50.870;4.722;2023-01-10T13:50:50;7.30;99.90
14555;DHT22;7364;50.870;4.722;2023-01-10T13:53:39;7.30;99.90
14555;DHT22;7364;50.870;4.722;2023-01-10T13:56:31;7.30;99.90
14555;DHT22;7364;50.870;4.722;2023-01-10T13:58:58;7.30;99.90
14555;DHT22;7364;50.870;4.722;2023-01-10T14:01:48;7.20;99.90
14555;DHT22;7364;50.870;4.722;2023-01-10T14:04:46;7.20;99.90
14555;DHT22;7364;50.870;4.722;2023-01-10T14:07:20;7.30;99.90
14555;DHT22;7364;50.870;4.722;2023-01-10T14:09:49;7.20;99.90
14555;DHT22;7364;50.870;4.722;2023-01-10T14:12:23;7.20;99.90
14555;DHT22;7364;50.870;4.722;2023-01-10T14:14:55;7.10;99.90
14555;DHT22;7364;50.870;4.722;2023-01-10T14:17:25;7.10;99.90
14555;DHT22;7364;50.870;4.722;2023-01-10T14:20:17;7.10;99.90
14555;DHT22;7364;50.870;4.722;2023-01-10T14:23:06;7.10;99.90
14555;DHT22;7364;50.870;4.722;2023-01-10T14:25:35;7.00;99.90
14555;DHT22;7364;50.870;4.722;2023-01-10T14:28:16;7.00;99.90
14555;DHT22;7364;50.870;4.722;2023-01-10T14:30:57;7.00;99.90
14555;DHT22;7364;50.870;4.722;2023-01-10T14:33:25;6.90;99.90
14555;DHT22;7364;50.870;4.722;2023-01-10T14:35:56;6.90;99.90
14555;DHT22;7364;50.870;4.722;2023-01-10T14:38:26;6.80;99.90
14555;DHT22;7364;50.870;4.722;2023-01-10T14:40:56;6.80;99.90
14555;DHT22;7364;50.870;4.722;2023-01-10T14:43:32;6.80;99.90
14555;DHT22;7364;50.870;4.722;2023-01-10T14:46:10;6.70;99.90
14555;DHT22;7364;50.870;4.722;2023-01-10T14:48:40;6.70;99.90
14555;DHT22;7364;50.870;4.722;2023-01-10T14:51:21;6.70;99.90
14555;DHT22;7364;50.870;4.722;2023-01-10T14:53:56;6.70;99.90
14555;DHT22;7364;50.870;4.722;2023-01-10T14:56:34;6.70;99.90
14555;DHT22;7364;50.870;4.722;2023-01-10T14:59:17;6.70;99.90
14555;DHT22;7364;50.870;4.722;2023-01-10T15:01:52;6.70;99.90
14555;DHT22;7364;50.870;4.722;2023-01-10T15:04:22;6.70;99.90
14555;DHT22;7364;50.870;4.722;2023-01-10T15:06:51;6.70;99.90
14555;DHT22;7364;50.870;4.722;2023-01-10T15:09:19;6.70;99.90
14555;DHT22;7364;50.870;4.722;2023-01-10T15:11:47;6.70;99.90
14555;DHT22;7364;50.870;4.722;2023-01-10T15:14:19;6.70;99.90
14555;DHT22;7364;50.870;4.722;2023-01-10T15:16:49;6.70;99.90
14555;DHT22;7364;50.870;4.722;2023-01-10T15:19:21;6.70;99.90
14555;DHT22;7364;50.870;4.722;2023-01-10T15:21:49;6.70;99.90
14555;DHT22;7364;50.870;4.722;2023-01-10T15:24:28;6.70;99.90
14555;DHT22;7364;50.870;4.722;2023-01-10T15:26:59;6.70;99.90
14555;DHT22;7364;50.870;4.722;2023-01-10T15:29:29;6.70;99.90
14555;DHT22;7364;50.870;4.722;2023-01-10T15:32:06;6.70;99.90
14555;DHT22;7364;50.870;4.722;2023-01-10T15:34:36;6.70;99.90
14555;DHT22;7364;50.870;4.722;2023-01-10T15:37:06;6.80;99.90
14555;DHT22;7364;50.870;4.722;2023-01-10T15:39:40;6.70;99.90
14555;DHT22;7364;50.870;4.722;2023-01-10T15:42:09;6.80;99.90
14555;DHT22;7364;50.870;4.722;2023-01-10T15:44:40;6.80;99.90
14555;DHT22;7364;50.870;4.722;2023-01-10T15:47:34;6.80;99.90
14555;DHT22;7364;50.870;4.722;2023-01-10T15:50:22;6.90;99.90
14555;DHT22;7364;50.870;4.722;2023-01-10T15:53:04;6.80;99.90
14555;DHT22;7364;50.870;4.722;2023-01-10T15:55:44;6.80;99.90
14555;DHT22;7364;50.870;4.722;2023-01-10T15:58:26;6.80;99.90
14555;DHT22;7364;50.870;4.722;2023-01-10T16:00:56;6.80;99.90
14555;DHT22;7364;50.870;4.722;2023-01-10T16:03:28;6.90;99.90
14555;DHT22;7364;50.870;4.722;2023-01-10T16:06:05;6.90;99.90
14555;DHT22;7364;50.870;4.722;2023-01-10T16:08:37;6.90;99.90
14555;DHT22;7364;50.870;4.722;2023-01-10T16:11:07;7.00;99.90
14555;DHT22;7364;50.870;4.722;2023-01-10T16:13:35;6.90;99.90
14555;DHT22;7364;50.870;4.722;2023-01-10T16:16:11;6.90;99.90
14555;DHT22;7364;50.870;4.722;2023-01-10T16:18:41;6.90;99.90
14555;DHT22;7364;50.870;4.722;2023-01-10T16:21:10;6.90;99.90
14555;DHT22;7364;50.870;4.722;2023-01-10T16:23:42;7.00;99.90
14555;DHT22;7364;50.870;4.722;2023-01-10T16:26:10;7.00;99.90
14555;DHT22;7364;50.870;4.722;2023-01-10T16:28:39;7.00;99.90
14555;DHT22;7364;50.870;4.722;2023-01-10T16:31:11;7.00;99.90
14555;DHT22;7364;50.870;4.722;2023-01-10T16:33:39;7.00;99.90
14555;DHT22;7364;50.870;4.722;2023-01-10T16:36:14;7.10;99.90
14555;DHT22;7364;50.870;4.722;2023-01-10T16:38:46;7.00;99.90
14555;DHT22;7364;50.870;4.722;2023-01-10T16:41:19;7.10;99.90
14555;DHT22;7364;50.870;4.722;2023-01-10T16:44:04;7.10;99.90